sensor_id;sensor_type;location;lat;lon;timestamp;pressure;altitude;pressure_sealevel;temperature;humidity
72096;BME280;59968;51.084;16.748;2023-05-21T00:00:18;100701.30;;;13.75;77.18
72096;BME280;59968;51.084;16.748;2023-05-21T00:04:05;100704.48;;;13.74;77.51
72096;BME280;59968;51.084;16.748;2023-05-21T00:06:45;100706.67;;;13.71;77.83
72096;BME280;59968;51.084;16.748;2023-05-21T00:10:05;100699.37;;;13.68;78.34
72096;BME280;59968;51.084;16.748;2023-05-21T00:12:58;100699.86;;;13.69;78.37
72096;BME280;59968;51.084;16.748;2023-05-21T00:16:03;100702.05;;;13.68;78.35
72096;BME280;59968;51.084;16.748;2023-05-21T00:19:14;100705.23;;;13.68;78.35
72096;BME280;59968;51.084;16.748;2023-05-21T00:22:00;100701.90;;;13.68;79.04
72096;BME280;59968;51.084;16.748;2023-05-21T00:24:44;100702.35;;;13.69;79.45
72096;BME280;59968;51.084;16.748;2023-05-21T00:27:55;100697.38;;;13.68;79.63
72096;BME280;59968;51.084;16.748;2023-05-21T00:30:59;100695.69;;;13.68;80.15
72096;BME280;59968;51.084;16.748;2023-05-21T00:33:31;100693.99;;;13.70;80.16
72096;BME280;59968;51.084;16.748;2023-05-21T00:36:28;100685.27;;;13.72;80.22
72096;BME280;59968;51.084;16.748;2023-05-21T00:39:37;100685.26;;;13.74;80.77
72096;BME280;59968;51.084;16.748;2023-05-21T00:42:21;100685.90;;;13.77;81.34
72096;BME280;59968;51.084;16.748;2023-05-21T00:45:14;100688.67;;;13.83;81.74
72096;BME280;59968;51.084;16.748;2023-05-21T00:47:54;100687.52;;;13.86;81.87
72096;BME280;59968;51.084;16.748;2023-05-21T00:50:54;100688.88;;;13.90;81.63
72096;BME280;59968;51.084;16.748;2023-05-21T00:53:53;100688.88;;;13.93;81.54
72096;BME280;59968;51.084;16.748;2023-05-21T00:56:53;100693.68;;;13.95;81.33
72096;BME280;59968;51.084;16.748;2023-05-21T01:00:01;100691.89;;;13.96;81.36
72096;BME280;59968;51.084;16.748;2023-05-21T01:02:43;100693.37;;;13.98;81.54
72096;BME280;59968;51.084;16.748;2023-05-21T01:08:43;100692.08;;;14.05;82.12
72096;BME280;59968;51.084;16.748;2023-05-21T01:11:56;100689.11;;;14.08;82.00
72096;BME280;59968;51.084;16.748;2023-05-21T01:14:45;100685.02;;;14.11;81.92
72096;BME280;59968;51.084;16.748;2023-05-21T01:17:29;100684.70;;;14.15;82.07
72096;BME280;59968;51.084;16.748;2023-05-21T01:20:27;100682.08;;;14.18;81.77
72096;BME280;59968;51.084;16.748;2023-05-21T01:23:49;100677.38;;;14.19;81.65
72096;BME280;59968;51.084;16.748;2023-05-21T01:26:29;100677.25;;;14.21;81.70
72096;BME280;59968;51.084;16.748;2023-05-21T01:29:21;100676.84;;;14.24;81.76
72096;BME280;59968;51.084;16.748;2023-05-21T01:35:59;100667.85;;;14.26;81.66
72096;BME280;59968;51.084;16.748;2023-05-21T01:39:00;100669.44;;;14.29;81.79
72096;BME280;59968;51.084;16.748;2023-05-21T01:42:04;100665.76;;;14.31;81.72
72096;BME280;59968;51.084;16.748;2023-05-21T01:45:15;100669.59;;;14.32;81.66
72096;BME280;59968;51.084;16.748;2023-05-21T01:48:24;100667.63;;;14.34;81.62
72096;BME280;59968;51.084;16.748;2023-05-21T01:51:15;100665.38;;;14.35;81.12
72096;BME280;59968;51.084;16.748;2023-05-21T01:54:01;100656.64;;;14.29;80.78
72096;BME280;59968;51.084;16.748;2023-05-21T01:57:18;100659.36;;;14.33;80.74
72096;BME280;59968;51.084;16.748;2023-05-21T02:00:13;100658.29;;;14.31;80.69
72096;BME280;59968;51.084;16.748;2023-05-21T02:02:59;100657.69;;;14.29;81.02
72096;BME280;59968;51.084;16.748;2023-05-21T02:05:43;100654.31;;;14.29;81.31
72096;BME280;59968;51.084;16.748;2023-05-21T02:08:44;100655.63;;;14.31;81.34
72096;BME280;59968;51.084;16.748;2023-05-21T02:11:39;100653.94;;;14.30;81.33
72096;BME280;59968;51.084;16.748;2023-05-21T02:14:34;100650.41;;;14.32;81.43
72096;BME280;59968;51.084;16.748;2023-05-21T02:17:31;100652.10;;;14.34;81.46
72096;BME280;59968;51.084;16.748;2023-05-21T02:20:27;100648.38;;;14.37;81.50
72096;BME280;59968;51.084;16.748;2023-05-21T02:23:42;100652.58;;;14.38;81.45
72096;BME280;59968;51.084;16.748;2023-05-21T02:27:00;100652.24;;;14.40;81.53
72096;BME280;59968;51.084;16.748;2023-05-21T02:29:38;100651.34;;;14.42;81.46
72096;BME280;59968;51.084;16.748;2023-05-21T02:32:45;100651.91;;;14.45;81.67
72096;BME280;59968;51.084;16.748;2023-05-21T02:35:41;100649.69;;;14.48;81.57
72096;BME280;59968;51.084;16.748;2023-05-21T02:38:41;100644.30;;;14.50;81.59
72096;BME280;59968;51.084;16.748;2023-05-21T02:41:27;100641.48;;;14.55;81.48
72096;BME280;59968;51.084;16.748;2023-05-21T02:47:32;100640.17;;;14.58;81.19
72096;BME280;59968;51.084;16.748;2023-05-21T02:50:20;100642.41;;;14.60;81.25
72096;BME280;59968;51.084;16.748;2023-05-21T02:53:16;100644.01;;;14.61;81.32
72096;BME280;59968;51.084;16.748;2023-05-21T02:55:50;100642.61;;;14.63;81.24
72096;BME280;59968;51.084;16.748;2023-05-21T02:58:47;100641.96;;;14.65;80.99
72096;BME280;59968;51.084;16.748;2023-05-21T03:01:27;100645.39;;;14.67;80.92
72096;BME280;59968;51.084;16.748;2023-05-21T03:04:26;100641.95;;;14.67;80.89
72096;BME280;59968;51.084;16.748;2023-05-21T03:07:12;100639.09;;;14.69;80.61
72096;BME280;59968;51.084;16.748;2023-05-21T03:10:12;100640.31;;;14.72;80.73
72096;BME280;59968;51.084;16.748;2023-05-21T03:13:05;100637.99;;;14.72;80.69
72096;BME280;59968;51.084;16.748;2023-05-21T03:15:40;100637.42;;;14.74;80.64
72096;BME280;59968;51.084;16.748;2023-05-21T03:18:17;100633.40;;;14.74;80.68
72096;BME280;59968;51.084;16.748;2023-05-21T03:21:11;100637.99;;;14.79;80.53
72096;BME280;59968;51.084;16.748;2023-05-21T03:23:48;100636.91;;;14.80;80.47
72096;BME280;59968;51.084;16.748;2023-05-21T03:26:46;100634.29;;;14.82;80.42
72096;BME280;59968;51.084;16.748;2023-05-21T03:29:46;100636.40;;;14.86;80.35
72096;BME280;59968;51.084;16.748;2023-05-21T03:32:26;100634.81;;;14.89;80.32
72096;BME280;59968;51.084;16.748;2023-05-21T03:38:09;100634.38;;;14.98;80.05
72096;BME280;59968;51.084;16.748;2023-05-21T03:40:44;100634.90;;;15.06;79.90
72096;BME280;59968;51.084;16.748;2023-05-21T03:43:44;100627.35;;;15.11;79.84
72096;BME280;59968;51.084;16.748;2023-05-21T03:46:24;100638.36;;;15.24;79.71
72096;BME280;59968;51.084;16.748;2023-05-21T03:49:36;100639.35;;;15.37;79.28
72096;BME280;59968;51.084;16.748;2023-05-21T03:52:14;100629.39;;;15.39;79.12
72096;BME280;59968;51.084;16.748;2023-05-21T03:54:55;100639.73;;;15.55;78.71
72096;BME280;59968;51.084;16.748;2023-05-21T03:57:27;100637.81;;;15.64;78.50
72096;BME280;59968;51.084;16.748;2023-05-21T04:00:00;100638.55;;;15.74;78.20
72096;BME280;59968;51.084;16.748;2023-05-21T04:02:33;100635.31;;;15.84;77.89
72096;BME280;59968;51.084;16.748;2023-05-21T04:05:17;100637.14;;;15.94;77.74
72096;BME280;59968;51.084;16.748;2023-05-21T04:07:48;100635.27;;;16.03;77.29
72096;BME280;59968;51.084;16.748;2023-05-21T04:10:27;100637.88;;;16.14;77.11
72096;BME280;59968;51.084;16.748;2023-05-21T04:12:56;100639.92;;;16.23;76.81
72096;BME280;59968;51.084;16.748;2023-05-21T04:15:33;100636.50;;;16.32;76.67
72096;BME280;59968;51.084;16.748;2023-05-21T04:18:09;100638.63;;;16.43;76.20
72096;BME280;59968;51.084;16.748;2023-05-21T04:23:57;100638.85;;;16.64;75.61
72096;BME280;59968;51.084;16.748;2023-05-21T04:26:48;100635.86;;;16.75;75.18
72096;BME280;59968;51.084;16.748;2023-05-21T04:29:23;100636.73;;;16.85;74.97
72096;BME280;59968;51.084;16.748;2023-05-21T04:32:15;100637.72;;;16.96;74.57
72096;BME280;59968;51.084;16.748;2023-05-21T04:34:45;100641.83;;;17.05;74.43
72096;BME280;59968;51.084;16.748;2023-05-21T04:37:23;100643.06;;;17.14;74.20
72096;BME280;59968;51.084;16.748;2023-05-21T04:39:56;100643.05;;;17.26;73.89
72096;BME280;59968;51.084;16.748;2023-05-21T04:42:26;100641.47;;;17.35;73.58
72096;BME280;59968;51.084;16.748;2023-05-21T04:45:11;100645.55;;;17.48;73.30
72096;BME280;59968;51.084;16.748;2023-05-21T04:47:46;100645.31;;;17.59;73.03
72096;BME280;59968;51.084;16.748;2023-05-21T04:50:15;100643.09;;;17.69;72.63
72096;BME280;59968;51.084;16.748;2023-05-21T04:52:48;100640.57;;;17.80;72.55
72096;BME280;59968;51.084;16.748;2023-05-21T04:55:24;100645.08;;;17.93;71.88
72096;BME280;59968;51.084;16.748;2023-05-21T04:57:58;100644.73;;;17.99;71.63
72096;BME280;59968;51.084;16.748;2023-05-21T05:00:26;100647.93;;;18.14;71.34
72096;BME280;59968;51.084;16.748;2023-05-21T05:02:55;100650.35;;;18.26;70.97
72096;BME280;59968;51.084;16.748;2023-05-21T05:05:24;100652.52;;;18.37;70.65
72096;BME280;59968;51.084;16.748;2023-05-21T05:07:56;100653.89;;;18.48;70.38
72096;BME280;59968;51.084;16.748;2023-05-21T05:10:28;100654.21;;;18.61;70.08
72096;BME280;59968;51.084;16.748;2023-05-21T05:13:03;100646.02;;;18.68;69.91
72096;BME280;59968;51.084;16.748;2023-05-21T05:15:31;100648.81;;;18.86;69.72
72096;BME280;59968;51.084;16.748;2023-05-21T05:18:01;100649.29;;;19.00;69.26
72096;BME280;59968;51.084;16.748;2023-05-21T05:20:29;100649.98;;;19.12;68.89
72096;BME280;59968;51.084;16.748;2023-05-21T05:22:58;100644.37;;;19.24;68.56
72096;BME280;59968;51.084;16.748;2023-05-21T05:25:27;100641.38;;;19.37;68.28
72096;BME280;59968;51.084;16.748;2023-05-21T05:27:58;100639.94;;;19.48;68.20
72096;BME280;59968;51.084;16.748;2023-05-21T05:30:28;100637.01;;;19.59;67.55
72096;BME280;59968;51.084;16.748;2023-05-21T05:33:03;100636.45;;;19.71;67.66
72096;BME280;59968;51.084;16.748;2023-05-21T05:35:33;100634.70;;;19.80;66.94
72096;BME280;59968;51.084;16.748;2023-05-21T05:38:02;100635.13;;;19.87;66.58
72096;BME280;59968;51.084;16.748;2023-05-21T05:40:31;100636.79;;;19.97;66.26
72096;BME280;59968;51.084;16.748;2023-05-21T05:43:05;100633.98;;;20.08;66.11
72096;BME280;59968;51.084;16.748;2023-05-21T05:45:35;100635.52;;;20.17;65.41
72096;BME280;59968;51.084;16.748;2023-05-21T05:48:09;100632.70;;;20.24;64.95
72096;BME280;59968;51.084;16.748;2023-05-21T05:50:38;100630.41;;;20.35;65.18
72096;BME280;59968;51.084;16.748;2023-05-21T05:53:07;100630.30;;;20.47;64.95
72096;BME280;59968;51.084;16.748;2023-05-21T05:55:38;100627.32;;;20.57;64.32
72096;BME280;59968;51.084;16.748;2023-05-21T05:58:07;100627.00;;;20.66;64.29
72096;BME280;59968;51.084;16.748;2023-05-21T06:00:48;100626.89;;;20.76;63.93
72096;BME280;59968;51.084;16.748;2023-05-21T06:03:17;100632.30;;;20.84;63.58
72096;BME280;59968;51.084;16.748;2023-05-21T06:05:48;100637.88;;;20.93;63.71
72096;BME280;59968;51.084;16.748;2023-05-21T06:08:17;100632.77;;;21.04;63.05
72096;BME280;59968;51.084;16.748;2023-05-21T06:10:46;100623.42;;;21.11;62.64
72096;BME280;59968;51.084;16.748;2023-05-21T06:13:15;100627.89;;;21.20;62.69
72096;BME280;59968;51.084;16.748;2023-05-21T06:15:43;100626.27;;;21.30;62.23
72096;BME280;59968;51.084;16.748;2023-05-21T06:18:12;100621.64;;;21.38;61.83
72096;BME280;59968;51.084;16.748;2023-05-21T06:20:42;100615.94;;;21.43;61.97
72096;BME280;59968;51.084;16.748;2023-05-21T06:23:14;100619.55;;;21.51;61.44
72096;BME280;59968;51.084;16.748;2023-05-21T06:25:45;100623.86;;;21.57;60.51
72096;BME280;59968;51.084;16.748;2023-05-21T06:28:14;100625.31;;;21.62;60.68
72096;BME280;59968;51.084;16.748;2023-05-21T06:30:45;100623.73;;;21.68;60.26
72096;BME280;59968;51.084;16.748;2023-05-21T06:33:14;100622.39;;;21.74;60.22
72096;BME280;59968;51.084;16.748;2023-05-21T06:35:44;100622.09;;;21.78;59.57
72096;BME280;59968;51.084;16.748;2023-05-21T06:38:14;100615.94;;;21.81;59.29
72096;BME280;59968;51.084;16.748;2023-05-21T06:40:43;100623.16;;;21.86;59.18
72096;BME280;59968;51.084;16.748;2023-05-21T06:43:18;100618.99;;;21.93;59.35
72096;BME280;59968;51.084;16.748;2023-05-21T06:46:06;100617.50;;;21.99;58.61
72096;BME280;59968;51.084;16.748;2023-05-21T06:48:38;100621.18;;;22.04;58.67
72096;BME280;59968;51.084;16.748;2023-05-21T06:51:07;100620.73;;;22.10;58.54
72096;BME280;59968;51.084;16.748;2023-05-21T06:53:36;100618.07;;;22.18;58.58
72096;BME280;59968;51.084;16.748;2023-05-21T06:56:06;100613.55;;;22.24;58.19
72096;BME280;59968;51.084;16.748;2023-05-21T06:58:37;100614.85;;;22.33;58.34
72096;BME280;59968;51.084;16.748;2023-05-21T07:01:06;100616.58;;;22.40;58.08
72096;BME280;59968;51.084;16.748;2023-05-21T07:03:35;100605.34;;;22.46;58.26
72096;BME280;59968;51.084;16.748;2023-05-21T07:06:04;100604.25;;;22.52;58.03
72096;BME280;59968;51.084;16.748;2023-05-21T07:08:33;100602.80;;;22.60;57.77
72096;BME280;59968;51.084;16.748;2023-05-21T07:11:05;100603.11;;;22.68;58.04
72096;BME280;59968;51.084;16.748;2023-05-21T07:13:35;100604.23;;;22.75;57.55
72096;BME280;59968;51.084;16.748;2023-05-21T07:16:05;100601.66;;;22.82;57.65
72096;BME280;59968;51.084;16.748;2023-05-21T07:18:33;100603.10;;;22.85;57.38
72096;BME280;59968;51.084;16.748;2023-05-21T07:21:03;100602.83;;;22.88;56.98
72096;BME280;59968;51.084;16.748;2023-05-21T07:23:32;100599.29;;;22.93;57.05
72096;BME280;59968;51.084;16.748;2023-05-21T07:26:03;100599.45;;;23.01;57.16
72096;BME280;59968;51.084;16.748;2023-05-21T07:28:32;100596.83;;;23.09;56.86
72096;BME280;59968;51.084;16.748;2023-05-21T07:31:01;100594.92;;;23.17;56.99
72096;BME280;59968;51.084;16.748;2023-05-21T07:33:35;100596.08;;;23.28;56.93
72096;BME280;59968;51.084;16.748;2023-05-21T07:36:04;100594.08;;;23.35;56.98
72096;BME280;59968;51.084;16.748;2023-05-21T07:38:33;100593.46;;;23.44;56.60
72096;BME280;59968;51.084;16.748;2023-05-21T07:41:02;100595.84;;;23.53;56.99
72096;BME280;59968;51.084;16.748;2023-05-21T07:43:31;100594.06;;;23.66;57.14
72096;BME280;59968;51.084;16.748;2023-05-21T07:46:01;100596.01;;;23.78;56.29
72096;BME280;59968;51.084;16.748;2023-05-21T07:48:30;100594.86;;;23.91;56.39
72096;BME280;59968;51.084;16.748;2023-05-21T07:51:02;100591.16;;;24.00;55.85
72096;BME280;59968;51.084;16.748;2023-05-21T07:53:31;100589.61;;;24.04;55.45
72096;BME280;59968;51.084;16.748;2023-05-21T07:56:02;100583.69;;;24.08;55.08
72096;BME280;59968;51.084;16.748;2023-05-21T07:58:32;100583.89;;;24.14;55.14
72096;BME280;59968;51.084;16.748;2023-05-21T08:01:02;100586.59;;;24.17;54.31
72096;BME280;59968;51.084;16.748;2023-05-21T08:03:31;100580.41;;;24.22;54.52
72096;BME280;59968;51.084;16.748;2023-05-21T08:06:02;100579.16;;;24.28;54.30
72096;BME280;59968;51.084;16.748;2023-05-21T08:08:31;100576.95;;;24.36;54.34
72096;BME280;59968;51.084;16.748;2023-05-21T08:11:00;100578.28;;;24.45;53.65
72096;BME280;59968;51.084;16.748;2023-05-21T08:13:30;100581.62;;;24.50;54.02
72096;BME280;59968;51.084;16.748;2023-05-21T08:15:59;100576.36;;;24.58;54.04
72096;BME280;59968;51.084;16.748;2023-05-21T08:18:27;100576.17;;;24.63;53.39
72096;BME280;59968;51.084;16.748;2023-05-21T08:20:56;100576.29;;;24.71;53.83
72096;BME280;59968;51.084;16.748;2023-05-21T08:23:25;100582.83;;;24.80;53.02
72096;BME280;59968;51.084;16.748;2023-05-21T08:25:55;100582.86;;;24.82;52.67
72096;BME280;59968;51.084;16.748;2023-05-21T08:28:24;100580.77;;;24.87;53.10
72096;BME280;59968;51.084;16.748;2023-05-21T08:30:55;100584.83;;;24.96;53.39
72096;BME280;59968;51.084;16.748;2023-05-21T08:33:24;100583.44;;;25.06;52.98
72096;BME280;59968;51.084;16.748;2023-05-21T08:35:52;100583.40;;;25.15;52.78
72096;BME280;59968;51.084;16.748;2023-05-21T08:38:44;100584.08;;;25.25;52.17
72096;BME280;59968;51.084;16.748;2023-05-21T08:41:17;100583.41;;;25.32;52.32
72096;BME280;59968;51.084;16.748;2023-05-21T08:43:54;100583.23;;;25.42;51.94
72096;BME280;59968;51.084;16.748;2023-05-21T08:46:28;100578.42;;;25.47;51.12
72096;BME280;59968;51.084;16.748;2023-05-21T08:49:01;100585.00;;;25.53;51.29
72096;BME280;59968;51.084;16.748;2023-05-21T08:51:32;100581.64;;;25.55;49.77
72096;BME280;59968;51.084;16.748;2023-05-21T08:54:01;100578.69;;;25.58;49.74
72096;BME280;59968;51.084;16.748;2023-05-21T08:56:33;100586.56;;;25.63;49.64
72096;BME280;59968;51.084;16.748;2023-05-21T08:59:02;100576.11;;;25.67;48.96
72096;BME280;59968;51.084;16.748;2023-05-21T09:01:34;100577.63;;;25.69;49.36
72096;BME280;59968;51.084;16.748;2023-05-21T09:04:19;100583.18;;;25.77;49.92
72096;BME280;59968;51.084;16.748;2023-05-21T09:06:53;100577.89;;;25.89;49.55
72096;BME280;59968;51.084;16.748;2023-05-21T09:09:49;100582.09;;;25.97;48.81
72096;BME280;59968;51.084;16.748;2023-05-21T09:12:20;100582.22;;;26.05;48.34
72096;BME280;59968;51.084;16.748;2023-05-21T09:14:50;100583.72;;;26.11;47.74
72096;BME280;59968;51.084;16.748;2023-05-21T09:17:23;100582.02;;;26.15;47.42
72096;BME280;59968;51.084;16.748;2023-05-21T09:20:15;100585.73;;;26.15;47.04
72096;BME280;59968;51.084;16.748;2023-05-21T09:22:49;100581.46;;;26.21;47.37
72096;BME280;59968;51.084;16.748;2023-05-21T09:25:23;100579.61;;;26.29;47.45
72096;BME280;59968;51.084;16.748;2023-05-21T09:27:54;100575.07;;;26.39;46.86
72096;BME280;59968;51.084;16.748;2023-05-21T09:30:23;100576.88;;;26.46;47.32
72096;BME280;59968;51.084;16.748;2023-05-21T09:32:58;100571.09;;;26.56;47.37
72096;BME280;59968;51.084;16.748;2023-05-21T09:35:30;100568.73;;;26.65;46.47
72096;BME280;59968;51.084;16.748;2023-05-21T09:37:59;100568.77;;;26.75;47.26
72096;BME280;59968;51.084;16.748;2023-05-21T09:40:33;100569.23;;;26.83;46.78
72096;BME280;59968;51.084;16.748;2023-05-21T09:43:04;100568.36;;;26.88;46.25
72096;BME280;59968;51.084;16.748;2023-05-21T09:45:32;100567.72;;;26.91;46.29
72096;BME280;59968;51.084;16.748;2023-05-21T09:48:02;100563.80;;;26.97;46.54
72096;BME280;59968;51.084;16.748;2023-05-21T09:50:34;100563.23;;;27.06;46.27
72096;BME280;59968;51.084;16.748;2023-05-21T09:53:10;100560.33;;;27.14;46.10
72096;BME280;59968;51.084;16.748;2023-05-21T09:55:39;100558.20;;;27.22;46.52
72096;BME280;59968;51.084;16.748;2023-05-21T09:58:09;100558.17;;;27.31;45.45
72096;BME280;59968;51.084;16.748;2023-05-21T10:00:37;100552.44;;;27.37;45.03
72096;BME280;59968;51.084;16.748;2023-05-21T10:03:10;100551.98;;;27.47;44.48
72096;BME280;59968;51.084;16.748;2023-05-21T10:05:41;100551.75;;;27.51;43.56
72096;BME280;59968;51.084;16.748;2023-05-21T10:08:11;100546.55;;;27.47;43.71
72096;BME280;59968;51.084;16.748;2023-05-21T10:10:42;100551.82;;;27.47;42.63
72096;BME280;59968;51.084;16.748;2023-05-21T10:13:13;100542.17;;;27.42;42.95
72096;BME280;59968;51.084;16.748;2023-05-21T10:15:51;100542.14;;;27.41;43.45
72096;BME280;59968;51.084;16.748;2023-05-21T10:18:21;100539.04;;;27.44;43.72
72096;BME280;59968;51.084;16.748;2023-05-21T10:20:52;100537.98;;;27.52;43.84
72096;BME280;59968;51.084;16.748;2023-05-21T10:23:23;100535.98;;;27.57;42.95
72096;BME280;59968;51.084;16.748;2023-05-21T10:25:52;100536.11;;;27.61;42.77
72096;BME280;59968;51.084;16.748;2023-05-21T10:28:22;100540.64;;;27.65;42.82
72096;BME280;59968;51.084;16.748;2023-05-21T10:30:51;100533.79;;;27.69;42.29
72096;BME280;59968;51.084;16.748;2023-05-21T10:36:43;100529.00;;;27.82;42.21
72096;BME280;59968;51.084;16.748;2023-05-21T10:39:15;100520.94;;;27.87;41.91
72096;BME280;59968;51.084;16.748;2023-05-21T10:42:04;100521.48;;;27.92;41.33
72096;BME280;59968;51.084;16.748;2023-05-21T10:59:45;100514.62;;;28.20;41.93
72096;BME280;59968;51.084;16.748;2023-05-21T11:02:18;100507.81;;;28.24;41.52
72096;BME280;59968;51.084;16.748;2023-05-21T11:04:57;100511.37;;;28.27;40.62
72096;BME280;59968;51.084;16.748;2023-05-21T11:07:55;100501.20;;;28.29;40.97
72096;BME280;59968;51.084;16.748;2023-05-21T11:10:37;100504.05;;;28.34;41.20
72096;BME280;59968;51.084;16.748;2023-05-21T11:13:13;100504.08;;;28.36;40.72
72096;BME280;59968;51.084;16.748;2023-05-21T11:16:13;100505.16;;;28.39;40.19
72096;BME280;59968;51.084;16.748;2023-05-21T11:21:16;100498.34;;;28.48;40.14
72096;BME280;59968;51.084;16.748;2023-05-21T11:23:53;100497.73;;;28.51;40.19
72096;BME280;59968;51.084;16.748;2023-05-21T11:26:24;100494.55;;;28.53;40.51
72096;BME280;59968;51.084;16.748;2023-05-21T11:31:32;100491.63;;;28.53;41.41
72096;BME280;59968;51.084;16.748;2023-05-21T11:34:20;100494.42;;;28.54;41.28
72096;BME280;59968;51.084;16.748;2023-05-21T11:39:45;100487.66;;;28.44;40.16
72096;BME280;59968;51.084;16.748;2023-05-21T11:42:31;100486.70;;;28.41;40.35
72096;BME280;59968;51.084;16.748;2023-05-21T11:45:01;100482.69;;;28.26;39.94
72096;BME280;59968;51.084;16.748;2023-05-21T11:47:31;100484.52;;;28.18;39.78
72096;BME280;59968;51.084;16.748;2023-05-21T11:50:01;100480.55;;;28.17;39.62
72096;BME280;59968;51.084;16.748;2023-05-21T11:52:30;100474.69;;;28.19;39.35
72096;BME280;59968;51.084;16.748;2023-05-21T11:55:00;100470.21;;;28.23;39.81
72096;BME280;59968;51.084;16.748;2023-05-21T11:57:29;100473.17;;;28.29;39.81
72096;BME280;59968;51.084;16.748;2023-05-21T12:00:00;100472.05;;;28.29;39.09
72096;BME280;59968;51.084;16.748;2023-05-21T12:02:46;100467.41;;;28.27;39.75
72096;BME280;59968;51.084;16.748;2023-05-21T12:05:15;100467.17;;;28.33;39.17
72096;BME280;59968;51.084;16.748;2023-05-21T12:07:48;100468.84;;;28.44;40.26
72096;BME280;59968;51.084;16.748;2023-05-21T12:10:21;100468.73;;;28.59;39.94
72096;BME280;59968;51.084;16.748;2023-05-21T12:12:51;100465.46;;;28.68;39.17
72096;BME280;59968;51.084;16.748;2023-05-21T12:15:25;100465.33;;;28.73;38.90
72096;BME280;59968;51.084;16.748;2023-05-21T12:17:54;100466.38;;;28.82;38.64
72096;BME280;59968;51.084;16.748;2023-05-21T12:20:27;100461.39;;;28.84;37.95
72096;BME280;59968;51.084;16.748;2023-05-21T12:22:58;100468.23;;;28.78;37.99
72096;BME280;59968;51.084;16.748;2023-05-21T12:25:27;100462.88;;;28.74;37.96
72096;BME280;59968;51.084;16.748;2023-05-21T12:27:57;100459.67;;;28.78;37.67
72096;BME280;59968;51.084;16.748;2023-05-21T12:30:28;100462.36;;;28.82;37.24
72096;BME280;59968;51.084;16.748;2023-05-21T12:32:57;100458.95;;;28.84;36.66
72096;BME280;59968;51.084;16.748;2023-05-21T12:35:30;100459.15;;;28.87;36.44
72096;BME280;59968;51.084;16.748;2023-05-21T12:38:03;100457.54;;;28.91;36.96
72096;BME280;59968;51.084;16.748;2023-05-21T12:40:36;100459.23;;;28.96;36.87
72096;BME280;59968;51.084;16.748;2023-05-21T12:43:07;100462.10;;;29.03;36.40
72096;BME280;59968;51.084;16.748;2023-05-21T12:45:36;100458.83;;;29.05;36.48
72096;BME280;59968;51.084;16.748;2023-05-21T12:48:06;100460.98;;;29.04;36.27
72096;BME280;59968;51.084;16.748;2023-05-21T12:50:39;100460.33;;;29.03;37.01
72096;BME280;59968;51.084;16.748;2023-05-21T12:53:08;100457.83;;;28.99;36.30
72096;BME280;59968;51.084;16.748;2023-05-21T12:55:39;100458.27;;;28.94;37.29
72096;BME280;59968;51.084;16.748;2023-05-21T12:58:12;100455.88;;;28.92;37.64
72096;BME280;59968;51.084;16.748;2023-05-21T13:00:41;100457.73;;;28.96;36.56
72096;BME280;59968;51.084;16.748;2023-05-21T13:03:11;100456.83;;;28.98;36.69
72096;BME280;59968;51.084;16.748;2023-05-21T13:05:40;100454.02;;;29.03;35.94
72096;BME280;59968;51.084;16.748;2023-05-21T13:08:09;100455.89;;;29.07;36.09
72096;BME280;59968;51.084;16.748;2023-05-21T13:10:38;100458.37;;;29.08;35.56
72096;BME280;59968;51.084;16.748;2023-05-21T13:13:07;100457.10;;;29.04;35.44
72096;BME280;59968;51.084;16.748;2023-05-21T13:15:37;100457.57;;;29.04;35.48
72096;BME280;59968;51.084;16.748;2023-05-21T13:18:06;100446.42;;;29.02;35.50
72096;BME280;59968;51.084;16.748;2023-05-21T13:20:35;100447.20;;;29.01;36.08
72096;BME280;59968;51.084;16.748;2023-05-21T13:23:04;100443.42;;;29.00;35.40
72096;BME280;59968;51.084;16.748;2023-05-21T13:25:35;100437.50;;;28.98;35.02
72096;BME280;59968;51.084;16.748;2023-05-21T13:28:04;100435.30;;;28.95;35.51
72096;BME280;59968;51.084;16.748;2023-05-21T13:30:36;100431.35;;;28.94;35.30
72096;BME280;59968;51.084;16.748;2023-05-21T13:33:05;100431.04;;;28.94;35.50
72096;BME280;59968;51.084;16.748;2023-05-21T13:35:34;100430.20;;;28.97;36.02
72096;BME280;59968;51.084;16.748;2023-05-21T13:38:03;100430.02;;;29.04;35.72
72096;BME280;59968;51.084;16.748;2023-05-21T13:40:32;100427.86;;;29.05;35.49
72096;BME280;59968;51.084;16.748;2023-05-21T13:43:06;100427.46;;;29.00;36.21
72096;BME280;59968;51.084;16.748;2023-05-21T13:45:42;100436.55;;;29.09;36.10
72096;BME280;59968;51.084;16.748;2023-05-21T13:48:12;100434.21;;;29.09;35.22
72096;BME280;59968;51.084;16.748;2023-05-21T13:50:44;100426.41;;;29.05;35.33
72096;BME280;59968;51.084;16.748;2023-05-21T13:53:13;100433.90;;;29.02;35.02
72096;BME280;59968;51.084;16.748;2023-05-21T13:55:42;100435.12;;;28.93;35.32
72096;BME280;59968;51.084;16.748;2023-05-21T13:58:12;100432.79;;;28.84;35.41
72096;BME280;59968;51.084;16.748;2023-05-21T14:00:42;100434.88;;;28.80;35.75
72096;BME280;59968;51.084;16.748;2023-05-21T14:03:10;100435.48;;;28.77;35.99
72096;BME280;59968;51.084;16.748;2023-05-21T14:05:39;100438.39;;;28.74;36.44
72096;BME280;59968;51.084;16.748;2023-05-21T14:08:09;100432.42;;;28.69;35.94
72096;BME280;59968;51.084;16.748;2023-05-21T14:10:39;100434.71;;;28.65;36.33
72096;BME280;59968;51.084;16.748;2023-05-21T14:13:09;100435.38;;;28.59;36.21
72096;BME280;59968;51.084;16.748;2023-05-21T14:15:48;100434.20;;;28.50;36.37